Pagrindinis puslapis
METAR-TAF:

METAR-TAF

Oro uostai :

Khon Kaen, Tailandas

platuma: 16-26N, ilguma: 102-50E, Aukštis: 165 m

Dabartinis oras

Ataskaita buvo paskelbta 1 valandą ir 8 minutes, ne 07:00 UTC
Vėjas 7 kt iš Šiaurės/Šiaurės Rytų, svyruoja nuo Šiaurės ir Rytų/Pietryčių
Temperatūra 32°C
Drėgmė 34%
Slėgis 1017 hPa
Matomumas 10 km arba daugiau
nėra debesų žemiau 1500 m ir nėra kamuolinių lietaus debesų

METAR: VTUK 230700Z 03007KT 350V110 CAVOK 32/14 Q1017 NOSIG

Laikas: 15:08 (08:08 UTC)

Prognozė

Ataskaita buvo paskelbta 3 valandos ir 8 minutes, ne 05:00 UTC
Prognozė galioja nuo 23 metu 06 UTC su 24 metu 06 UTC
Vėjas 8 kt iš Rytų/Šiaurės Rytų
Matomumas: 9000 m

TAF: VTUK 230500Z 2306/2406 07008KT 9000 NSC

Orai ataskaitas ir orų prognozės (METAR, TAF).

turimą stotys yra geltonos ir raudonos taškus žemėlapyje.

Perkelti pele per norėdami pamatyti stoties vardą.

Tada spustelėkite, norėdami matyti oro stebėjimo ir prognozės.

Norėdami pakeisti žemėlapį: spustelėkite ant žalios mygtukų su juodo kryžiaus žemyn,; žalią mygtuką su brūkšneliu, jei norite nutolinti; arba žalių rodyklių gretimoms žemėlapius.


METAR-TAF: